Time;durP1;ratioP1;P1;durP2;ratioP2;P2;SDS_P1;SDS_P2;PMS_P1;PMS_P2;Temp;Humidity;BMP_temperature;BMP_pressure;BME280_temperature;BME280_humidity;BME280_pressure;Samples;Min_cycle;Max_cycle;Signal;HPM_P1;HPM_P2
2021/01/18 00:00:01;;;;;;;;;;;-0.20;99.90;;;;;;5047502;28;19913;-70
2021/01/18 00:02:28;;;;;;;;;;;-0.20;99.90;;;;;;5052867;28;19917;-71
2021/01/18 00:04:54;;;;;;;;;;;-0.20;99.90;;;;;;5050535;28;20392;-71
2021/01/18 00:07:20;;;;;;;;;;;-0.20;99.90;;;;;;5050097;28;19916;-70
2021/01/18 00:09:46;;;;;;;;;;;-0.20;99.90;;;;;;5048379;28;19916;-71
2021/01/18 00:12:12;;;;;;;;;;;-0.10;99.90;;;;;;5048068;28;19920;-71
2021/01/18 00:14:37;;;;;;;;;;;-0.10;99.90;;;;;;5039318;28;19913;-71
2021/01/18 00:17:07;;;;;;;;;;;-0.10;99.90;;;;;;5046462;28;19912;-71
2021/01/18 00:19:33;;;;;;;;;;;0.00;99.90;;;;;;5048456;28;19912;-71
2021/01/18 00:21:58;;;;;;;;;;;0.00;99.90;;;;;;5047463;28;19979;-71
2021/01/18 00:24:24;;;;;;;;;;;0.00;99.90;;;;;;5043828;28;19917;-71
2021/01/18 00:26:50;;;;;;;;;;;0.10;99.90;;;;;;5048968;28;19920;-71
2021/01/18 00:29:16;;;;;;;;;;;0.10;99.90;;;;;;5039264;28;19991;-71
2021/01/18 00:31:43;;;;;;;;;;;0.10;99.90;;;;;;5046325;28;20003;-71
2021/01/18 00:34:09;;;;;;;;;;;0.20;99.90;;;;;;5048211;28;19920;-71
2021/01/18 00:36:35;;;;;;;;;;;0.20;99.90;;;;;;5057755;28;19913;-71
2021/01/18 00:39:01;;;;;;;;;;;0.20;99.90;;;;;;5052899;28;19960;-71
2021/01/18 00:41:27;;;;;;;;;;;0.20;99.90;;;;;;5043511;28;19960;-71
2021/01/18 00:43:53;;;;;;;;;;;0.30;99.90;;;;;;5049404;28;20301;-71
2021/01/18 00:46:19;;;;;;;;;;;0.30;99.90;;;;;;5049920;28;20340;-71
2021/01/18 00:48:45;;;;;;;;;;;0.30;99.90;;;;;;5049149;28;19912;-71
2021/01/18 00:51:10;;;;;;;;;;;0.20;99.90;;;;;;5047873;28;19967;-72
2021/01/18 00:53:36;;;;;;;;;;;0.20;99.90;;;;;;5047430;28;19978;-71
2021/01/18 00:56:02;;;;;;;;;;;0.20;99.90;;;;;;5046558;28;19921;-71
2021/01/18 00:58:28;;;;;;;;;;;0.20;99.90;;;;;;5045260;28;19912;-71
2021/01/18 01:00:54;;;;;;;;;;;0.20;99.90;;;;;;5049433;28;20424;-71
2021/01/18 01:03:20;;;;;;;;;;;0.20;99.90;;;;;;5046561;28;19967;-71
2021/01/18 01:05:46;;;;;;;;;;;0.20;99.90;;;;;;5044193;28;19939;-72
2021/01/18 01:08:12;;;;;;;;;;;0.20;99.90;;;;;;5050464;28;19913;-71
2021/01/18 01:10:38;;;;;;;;;;;0.30;99.90;;;;;;5051191;28;19966;-71
2021/01/18 01:13:05;;;;;;;;;;;0.30;99.90;;;;;;5051198;28;20081;-71
2021/01/18 01:15:31;;;;;;;;;;;0.30;99.90;;;;;;5056701;28;19915;-71
2021/01/18 01:17:57;;;;;;;;;;;0.30;99.90;;;;;;5052839;28;20338;-71
2021/01/18 01:20:23;;;;;;;;;;;0.30;99.90;;;;;;5043936;28;19916;-71
2021/01/18 01:22:49;;;;;;;;;;;0.30;99.90;;;;;;5056668;28;19921;-71
2021/01/18 01:25:16;;;;;;;;;;;0.30;99.90;;;;;;5049057;28;19939;-70
2021/01/18 01:27:42;;;;;;;;;;;0.30;99.90;;;;;;5051959;28;19908;-70
2021/01/18 01:30:09;;;;;;;;;;;0.30;99.90;;;;;;5047184;28;19909;-71
2021/01/18 01:32:38;;;;;;;;;;;0.30;99.90;;;;;;5051788;28;19924;-71
2021/01/18 01:35:05;;;;;;;;;;;0.40;99.90;;;;;;5046169;28;20377;-71
2021/01/18 01:37:31;;;;;;;;;;;0.40;99.90;;;;;;5046975;28;19915;-70
2021/01/18 01:39:57;;;;;;;;;;;0.40;99.90;;;;;;5049331;28;19913;-70
2021/01/18 01:42:23;;;;;;;;;;;0.40;99.90;;;;;;5047805;28;19916;-72
2021/01/18 01:44:49;;;;;;;;;;;0.40;99.90;;;;;;5049762;28;19916;-71
2021/01/18 01:47:27;;;;;;;;;;;0.50;99.90;;;;;;5051302;28;19912;-72
2021/01/18 01:49:53;;;;;;;;;;;0.50;99.90;;;;;;5048666;28;19979;-71
2021/01/18 01:52:20;;;;;;;;;;;0.50;99.90;;;;;;5051052;28;19917;-71
2021/01/18 01:54:48;;;;;;;;;;;0.60;99.90;;;;;;5051403;28;20377;-72
2021/01/18 01:57:14;;;;;;;;;;;0.60;99.90;;;;;;5053191;28;19908;-71
2021/01/18 01:59:39;;;;;;;;;;;0.60;99.90;;;;;;5052196;28;20369;-71
2021/01/18 02:02:05;;;;;;;;;;;0.60;99.90;;;;;;5053677;28;19913;-71
2021/01/18 02:04:31;;;;;;;;;;;0.60;99.90;;;;;;5063505;28;19920;-71
2021/01/18 02:06:57;;;;;;;;;;;0.60;99.90;;;;;;5051902;28;19905;-72
2021/01/18 02:09:23;;;;;;;;;;;0.60;99.90;;;;;;5049146;28;19970;-72
2021/01/18 02:11:49;;;;;;;;;;;0.60;99.90;;;;;;5049582;28;19963;-72
2021/01/18 02:14:28;;;;;;;;;;;0.60;99.90;;;;;;5049597;28;19908;-72
2021/01/18 02:16:58;;;;;;;;;;;0.60;99.90;;;;;;5050543;28;19990;-72
2021/01/18 02:19:42;;;;;;;;;;;0.60;99.90;;;;;;5042077;28;19909;-72
2021/01/18 02:22:08;;;;;;;;;;;0.50;99.90;;;;;;5049497;28;19920;-72
2021/01/18 02:24:53;;;;;;;;;;;0.50;99.90;;;;;;5047386;28;20281;-71
2021/01/18 02:27:37;;;;;;;;;;;0.50;99.90;;;;;;5050646;28;19916;-72
2021/01/18 02:30:22;;;;;;;;;;;0.50;99.90;;;;;;5051813;28;19924;-72
2021/01/18 02:33:00;;;;;;;;;;;0.50;99.90;;;;;;5046785;28;19915;-72
2021/01/18 02:35:29;;;;;;;;;;;0.50;99.90;;;;;;5049677;28;19908;-72
2021/01/18 02:37:55;;;;;;;;;;;0.50;99.90;;;;;;5051576;28;20378;-72
2021/01/18 02:40:25;;;;;;;;;;;0.40;99.90;;;;;;5049071;28;19962;-72
2021/01/18 02:42:52;;;;;;;;;;;0.40;99.90;;;;;;5042615;28;19939;-72
2021/01/18 02:45:18;;;;;;;;;;;0.40;99.90;;;;;;5043733;28;19908;-72
2021/01/18 02:47:44;;;;;;;;;;;0.30;99.90;;;;;;5047769;28;19909;-72
2021/01/18 02:50:10;;;;;;;;;;;0.30;99.90;;;;;;5045025;28;19923;-72
2021/01/18 02:52:40;;;;;;;;;;;0.30;99.90;;;;;;5043939;28;19913;-72
2021/01/18 02:55:06;;;;;;;;;;;0.20;99.90;;;;;;5048824;28;19920;-72
2021/01/18 02:57:32;;;;;;;;;;;0.20;99.90;;;;;;5051517;28;19913;-72
2021/01/18 02:59:58;;;;;;;;;;;0.10;99.90;;;;;;5048605;28;20574;-72
2021/01/18 03:02:27;;;;;;;;;;;0.10;99.90;;;;;;5047234;28;19916;-72
2021/01/18 03:04:56;;;;;;;;;;;0.10;99.90;;;;;;5051047;28;20313;-72
2021/01/18 03:07:31;;;;;;;;;;;0.10;99.90;;;;;;5056046;28;19963;-72
2021/01/18 03:10:04;;;;;;;;;;;0.10;99.90;;;;;;5055745;28;19908;-72
2021/01/18 03:12:31;;;;;;;;;;;0.20;99.90;;;;;;5046278;28;19908;-72
2021/01/18 03:14:57;;;;;;;;;;;0.20;99.90;;;;;;5049635;28;19924;-72
2021/01/18 03:17:24;;;;;;;;;;;0.20;99.90;;;;;;5050432;28;19909;-72
2021/01/18 03:19:50;;;;;;;;;;;0.20;99.90;;;;;;5047051;28;19916;-72
2021/01/18 03:22:22;;;;;;;;;;;0.30;99.90;;;;;;5044337;28;19904;-72
2021/01/18 03:24:48;;;;;;;;;;;0.30;99.90;;;;;;5048880;28;19917;-72
2021/01/18 03:27:14;;;;;;;;;;;0.30;99.90;;;;;;5039972;28;19966;-72
2021/01/18 03:29:40;;;;;;;;;;;0.30;99.90;;;;;;5048264;28;19970;-72
2021/01/18 03:32:06;;;;;;;;;;;0.30;99.90;;;;;;5049766;28;19967;-72
2021/01/18 03:34:33;;;;;;;;;;;0.30;99.90;;;;;;5048804;28;19916;-72
2021/01/18 03:36:59;;;;;;;;;;;0.30;99.90;;;;;;5051415;28;19912;-72
2021/01/18 03:39:25;;;;;;;;;;;0.30;99.90;;;;;;5040823;28;19913;-72
2021/01/18 03:41:51;;;;;;;;;;;0.30;99.90;;;;;;5042455;28;19991;-72
2021/01/18 03:44:17;;;;;;;;;;;0.30;99.90;;;;;;5043510;28;19928;-71
2021/01/18 03:46:43;;;;;;;;;;;0.30;99.90;;;;;;5050047;28;19921;-72
2021/01/18 03:49:09;;;;;;;;;;;0.30;99.90;;;;;;5049610;28;20296;-72
2021/01/18 03:51:35;;;;;;;;;;;0.40;99.90;;;;;;5049774;28;19916;-72
2021/01/18 03:54:01;;;;;;;;;;;0.30;99.90;;;;;;5049559;28;19912;-72
2021/01/18 03:56:27;;;;;;;;;;;0.40;99.90;;;;;;5045691;28;20009;-72
2021/01/18 03:58:53;;;;;;;;;;;0.30;99.90;;;;;;5047260;28;19908;-72
2021/01/18 04:01:19;;;;;;;;;;;0.30;99.90;;;;;;5049292;28;19912;-72
2021/01/18 04:03:45;;;;;;;;;;;0.30;99.90;;;;;;5049410;28;20353;-72
2021/01/18 04:06:11;;;;;;;;;;;0.30;99.90;;;;;;5051345;28;19909;-71
2021/01/18 04:08:37;;;;;;;;;;;0.30;99.90;;;;;;5044555;28;19919;-72
2021/01/18 04:11:03;;;;;;;;;;;0.30;99.90;;;;;;5050662;28;19908;-72
2021/01/18 04:13:29;;;;;;;;;;;0.30;99.90;;;;;;5048862;28;20258;-72
2021/01/18 04:15:55;;;;;;;;;;;0.30;99.90;;;;;;5048270;28;19904;-72
2021/01/18 04:18:21;;;;;;;;;;;0.30;99.90;;;;;;5044813;28;19912;-72
2021/01/18 04:20:46;;;;;;;;;;;0.30;99.90;;;;;;5044895;28;19909;-72
2021/01/18 04:23:12;;;;;;;;;;;0.30;99.90;;;;;;5048952;28;19917;-72
2021/01/18 04:25:38;;;;;;;;;;;0.30;99.90;;;;;;5039620;28;19980;-72
2021/01/18 04:28:04;;;;;;;;;;;0.30;99.90;;;;;;5047620;28;20004;-72
2021/01/18 04:30:34;;;;;;;;;;;0.30;99.90;;;;;;5046863;28;19913;-72
2021/01/18 04:33:03;;;;;;;;;;;0.30;99.90;;;;;;5046130;28;19908;-72
2021/01/18 04:35:29;;;;;;;;;;;0.30;99.90;;;;;;5050439;28;19909;-72
2021/01/18 04:37:56;;;;;;;;;;;0.20;99.90;;;;;;5051814;28;20286;-72
2021/01/18 04:40:22;;;;;;;;;;;0.30;99.90;;;;;;5046827;28;19911;-72
2021/01/18 04:42:48;;;;;;;;;;;0.20;99.90;;;;;;5052992;28;19932;-71
2021/01/18 04:45:15;;;;;;;;;;;0.30;99.90;;;;;;5055074;28;19905;-70
2021/01/18 04:47:41;;;;;;;;;;;0.30;99.90;;;;;;5048706;28;19913;-70
2021/01/18 04:50:08;;;;;;;;;;;0.30;99.90;;;;;;5052795;28;20305;-72
2021/01/18 04:52:46;;;;;;;;;;;0.30;99.90;;;;;;5058448;28;19920;-72
2021/01/18 04:55:31;;;;;;;;;;;0.30;99.90;;;;;;5057843;28;19909;-72
2021/01/18 04:58:07;;;;;;;;;;;0.30;99.90;;;;;;5052513;28;19931;-72
2021/01/18 05:00:34;;;;;;;;;;;0.30;99.90;;;;;;5049430;28;19909;-74
2021/01/18 05:03:00;;;;;;;;;;;0.30;99.90;;;;;;5045940;28;19923;-72
2021/01/18 05:05:28;;;;;;;;;;;0.30;99.90;;;;;;5048041;28;20301;-74
2021/01/18 05:08:03;;;;;;;;;;;0.30;99.90;;;;;;5049978;28;19909;-74
2021/01/18 05:10:29;;;;;;;;;;;0.30;99.90;;;;;;5061008;28;19909;-71
2021/01/18 05:12:56;;;;;;;;;;;0.20;99.90;;;;;;5062013;28;19916;-73
2021/01/18 05:15:22;;;;;;;;;;;0.20;99.90;;;;;;5054283;28;19905;-72
2021/01/18 05:17:49;;;;;;;;;;;0.20;99.90;;;;;;5055475;28;19909;-73
2021/01/18 05:20:15;;;;;;;;;;;0.20;99.90;;;;;;5074330;28;20281;-75
2021/01/18 05:22:42;;;;;;;;;;;0.20;99.90;;;;;;5066904;28;20262;-73
2021/01/18 05:25:08;;;;;;;;;;;0.20;99.90;;;;;;5067194;28;19936;-73
2021/01/18 05:27:34;;;;;;;;;;;0.20;99.90;;;;;;5055433;28;19909;-72
2021/01/18 05:30:00;;;;;;;;;;;0.20;99.90;;;;;;5065172;28;19915;-72
2021/01/18 05:32:26;;;;;;;;;;;0.20;99.90;;;;;;5074755;28;19912;-68
2021/01/18 05:34:52;;;;;;;;;;;0.20;99.90;;;;;;5060259;28;19916;-68
2021/01/18 05:37:18;;;;;;;;;;;0.20;99.90;;;;;;5064729;28;20366;-68
2021/01/18 05:39:44;;;;;;;;;;;0.20;99.90;;;;;;5054788;28;19904;-68
2021/01/18 05:42:17;;;;;;;;;;;0.20;99.90;;;;;;5059665;28;20277;-68
2021/01/18 05:44:43;;;;;;;;;;;0.20;99.90;;;;;;5070316;28;19925;-68
2021/01/18 05:47:10;;;;;;;;;;;0.20;99.90;;;;;;5071486;28;19911;-69
2021/01/18 05:49:46;;;;;;;;;;;0.20;99.90;;;;;;5069678;28;20296;-69
2021/01/18 05:52:45;;;;;;;;;;;0.20;99.90;;;;;;5074515;28;19916;-68
2021/01/18 05:55:15;;;;;;;;;;;0.20;99.90;;;;;;5035142;28;19921;-68
2021/01/18 05:57:45;;;;;;;;;;;0.20;99.90;;;;;;5053280;28;19909;-68
2021/01/18 06:00:11;;;;;;;;;;;0.20;99.90;;;;;;5052711;28;19905;-69
2021/01/18 06:02:38;;;;;;;;;;;0.20;99.90;;;;;;5052919;28;19905;-68
2021/01/18 06:05:07;;;;;;;;;;;0.20;99.90;;;;;;5059359;28;19923;-69
2021/01/18 06:07:33;;;;;;;;;;;0.20;99.90;;;;;;5070982;28;19922;-68
2021/01/18 06:09:59;;;;;;;;;;;0.20;99.90;;;;;;5070783;28;19918;-69
2021/01/18 06:12:25;;;;;;;;;;;0.20;99.90;;;;;;5070783;28;19904;-68
2021/01/18 06:15:06;;;;;;;;;;;0.20;99.90;;;;;;5060087;28;20381;-69
2021/01/18 06:17:32;;;;;;;;;;;0.20;99.90;;;;;;5045308;28;19916;-68
2021/01/18 06:19:59;;;;;;;;;;;0.10;99.90;;;;;;5054258;28;19910;-69
2021/01/18 06:22:27;;;;;;;;;;;0.10;99.90;;;;;;5055652;28;19909;-68
2021/01/18 06:24:57;;;;;;;;;;;0.10;99.90;;;;;;5053939;28;19921;-68
2021/01/18 06:27:29;;;;;;;;;;;0.10;99.90;;;;;;5052911;28;19916;-68
2021/01/18 06:29:55;;;;;;;;;;;0.10;99.90;;;;;;5051018;28;19916;-68
2021/01/18 06:32:21;;;;;;;;;;;0.10;99.90;;;;;;5053924;28;19909;-68
2021/01/18 06:34:47;;;;;;;;;;;0.10;99.90;;;;;;5051733;28;19912;-69
2021/01/18 06:37:20;;;;;;;;;;;0.00;99.90;;;;;;5052173;28;19927;-68
2021/01/18 06:39:46;;;;;;;;;;;0.00;99.90;;;;;;5050213;28;19919;-68
2021/01/18 06:42:12;;;;;;;;;;;0.00;99.90;;;;;;5052531;28;19909;-69
2021/01/18 06:44:41;;;;;;;;;;;0.00;99.90;;;;;;5041028;28;19946;-68
2021/01/18 06:47:26;;;;;;;;;;;0.00;99.90;;;;;;5048980;28;20382;-68
2021/01/18 06:49:53;;;;;;;;;;;0.00;99.90;;;;;;5032516;28;19912;-68
2021/01/18 06:52:23;;;;;;;;;;;0.00;99.90;;;;;;5053395;28;19912;-69
2021/01/18 06:54:58;;;;;;;;;;;0.00;99.90;;;;;;5047884;28;19917;-69
2021/01/18 06:57:30;;;;;;;;;;;0.10;99.90;;;;;;5056807;28;19908;-68
2021/01/18 06:59:58;;;;;;;;;;;0.00;99.90;;;;;;5050747;28;19904;-68
2021/01/18 07:02:27;;;;;;;;;;;0.00;99.90;;;;;;5050211;28;20272;-69
2021/01/18 07:05:09;;;;;;;;;;;0.10;99.90;;;;;;5053927;28;19935;-68
2021/01/18 07:07:36;;;;;;;;;;;0.10;99.90;;;;;;5050489;28;19917;-69
2021/01/18 07:10:05;;;;;;;;;;;0.10;99.90;;;;;;5049286;28;19913;-69
2021/01/18 07:12:31;;;;;;;;;;;0.10;99.90;;;;;;5050562;28;19909;-69
2021/01/18 07:15:04;;;;;;;;;;;0.10;99.90;;;;;;5049841;28;20373;-69
2021/01/18 07:17:59;;;;;;;;;;;0.10;99.90;;;;;;5042753;28;19916;-69
2021/01/18 07:20:26;;;;;;;;;;;0.10;99.90;;;;;;5043466;28;20281;-69
2021/01/18 07:22:55;;;;;;;;;;;0.10;99.90;;;;;;5047757;28;20297;-69
2021/01/18 07:25:24;;;;;;;;;;;0.10;99.90;;;;;;5050091;28;19921;-69
2021/01/18 07:27:51;;;;;;;;;;;0.10;99.90;;;;;;5042912;28;19916;-69
2021/01/18 07:30:17;;;;;;;;;;;0.10;99.90;;;;;;5049910;28;19909;-69
2021/01/18 07:32:43;;;;;;;;;;;0.10;99.90;;;;;;5054523;28;20286;-69
2021/01/18 07:35:09;;;;;;;;;;;0.10;99.90;;;;;;5044974;28;19962;-69
2021/01/18 07:37:35;;;;;;;;;;;0.00;99.90;;;;;;5073067;28;19924;-69
2021/01/18 07:40:14;;;;;;;;;;;0.00;99.90;;;;;;5051260;28;19921;-69
2021/01/18 07:42:40;;;;;;;;;;;0.00;99.90;;;;;;5052795;28;19909;-69
2021/01/18 07:45:13;;;;;;;;;;;0.00;99.90;;;;;;5046632;28;19920;-69
2021/01/18 07:47:54;;;;;;;;;;;0.00;99.90;;;;;;5045075;28;19909;-69
2021/01/18 07:50:27;;;;;;;;;;;0.00;99.90;;;;;;5044684;28;19913;-68
2021/01/18 07:52:56;;;;;;;;;;;0.10;99.90;;;;;;5047248;28;20669;-69
2021/01/18 07:55:22;;;;;;;;;;;0.10;99.90;;;;;;5050428;28;19913;-69
2021/01/18 07:57:48;;;;;;;;;;;0.10;99.90;;;;;;5053965;28;19913;-69
2021/01/18 08:00:17;;;;;;;;;;;0.10;99.90;;;;;;5039236;28;19924;-69
2021/01/18 08:02:46;;;;;;;;;;;0.10;99.90;;;;;;5050094;28;20281;-69
2021/01/18 08:05:22;;;;;;;;;;;0.10;99.90;;;;;;5041122;28;19917;-69
2021/01/18 08:08:04;;;;;;;;;;;0.10;99.90;;;;;;5042625;28;19937;-69
2021/01/18 08:10:53;;;;;;;;;;;0.20;99.90;;;;;;5042768;28;20404;-69
2021/01/18 08:13:42;;;;;;;;;;;0.20;99.90;;;;;;5037412;28;19908;-69
2021/01/18 08:16:12;;;;;;;;;;;0.20;99.90;;;;;;5042200;28;19916;-69
2021/01/18 08:19:08;;;;;;;;;;;0.20;99.90;;;;;;5050274;28;19924;-69
2021/01/18 08:21:43;;;;;;;;;;;0.20;99.90;;;;;;5050774;28;20545;-69
2021/01/18 08:24:13;;;;;;;;;;;0.20;99.90;;;;;;5046382;28;19936;-69
2021/01/18 08:26:57;;;;;;;;;;;0.20;99.90;;;;;;5049028;28;19913;-69
2021/01/18 08:29:33;;;;;;;;;;;0.20;99.90;;;;;;5049192;28;19917;-69
2021/01/18 08:32:17;;;;;;;;;;;0.20;99.90;;;;;;5047066;28;19924;-69
2021/01/18 08:34:43;;;;;;;;;;;0.20;99.90;;;;;;5048707;28;20031;-69
2021/01/18 08:37:09;;;;;;;;;;;0.20;99.90;;;;;;5055505;28;19909;-69
2021/01/18 08:39:35;;;;;;;;;;;0.20;99.90;;;;;;5046071;28;19915;-69
2021/01/18 08:42:01;;;;;;;;;;;0.30;99.90;;;;;;5045123;28;19909;-69
2021/01/18 08:44:31;;;;;;;;;;;0.30;99.90;;;;;;5050087;28;19921;-69
2021/01/18 08:46:56;;;;;;;;;;;0.30;99.90;;;;;;5064915;28;19924;-69
2021/01/18 08:49:32;;;;;;;;;;;0.30;99.90;;;;;;5057389;28;19908;-69
2021/01/18 08:51:59;;;;;;;;;;;0.30;99.90;;;;;;5050325;28;19913;-69
2021/01/18 08:54:28;;;;;;;;;;;0.30;99.90;;;;;;5051178;28;19913;-69
2021/01/18 08:57:14;;;;;;;;;;;0.30;99.90;;;;;;5050516;28;19909;-69
2021/01/18 08:59:40;;;;;;;;;;;0.30;99.90;;;;;;5043591;28;19913;-69
2021/01/18 09:02:06;;;;;;;;;;;0.30;99.90;;;;;;5052338;28;20340;-69
2021/01/18 09:04:32;;;;;;;;;;;0.30;99.90;;;;;;5056740;28;19917;-69
2021/01/18 09:07:02;;;;;;;;;;;0.30;99.90;;;;;;5053027;28;19948;-69
2021/01/18 09:09:28;;;;;;;;;;;0.30;99.90;;;;;;5052919;28;20293;-69
2021/01/18 09:11:59;;;;;;;;;;;0.40;99.90;;;;;;5053054;28;19917;-69
2021/01/18 09:14:27;;;;;;;;;;;0.30;99.90;;;;;;5048747;28;19912;-69
2021/01/18 09:16:53;;;;;;;;;;;0.30;99.90;;;;;;5050867;28;20317;-69
2021/01/18 09:19:18;;;;;;;;;;;0.30;99.90;;;;;;5050350;28;19909;-69
2021/01/18 09:21:44;;;;;;;;;;;0.40;99.90;;;;;;5051689;28;19920;-69
2021/01/18 09:24:10;;;;;;;;;;;0.30;99.90;;;;;;5046676;28;19927;-69
2021/01/18 09:26:37;;;;;;;;;;;0.40;99.90;;;;;;5049150;28;19917;-69
2021/01/18 09:29:02;;;;;;;;;;;0.40;99.90;;;;;;5048608;28;20277;-69
2021/01/18 09:31:28;;;;;;;;;;;0.40;99.90;;;;;;5049341;28;20003;-69
2021/01/18 09:33:54;;;;;;;;;;;0.40;99.90;;;;;;5049238;28;19912;-69
2021/01/18 09:36:22;;;;;;;;;;;0.40;99.90;;;;;;5047666;28;19909;-68
2021/01/18 09:38:48;;;;;;;;;;;0.40;99.90;;;;;;5048487;28;20281;-69
2021/01/18 09:41:14;;;;;;;;;;;0.40;99.90;;;;;;5050042;28;19908;-69
2021/01/18 09:43:41;;;;;;;;;;;0.40;99.90;;;;;;5044763;28;19920;-69
2021/01/18 09:46:07;;;;;;;;;;;0.40;99.90;;;;;;5048472;28;19920;-69
2021/01/18 09:48:33;;;;;;;;;;;0.50;99.90;;;;;;5048844;28;19913;-69
2021/01/18 09:50:59;;;;;;;;;;;0.50;99.90;;;;;;5049521;28;19920;-69
2021/01/18 09:53:25;;;;;;;;;;;0.50;99.90;;;;;;5045330;28;19916;-69
2021/01/18 09:55:51;;;;;;;;;;;0.50;99.90;;;;;;5057445;28;19913;-69
2021/01/18 09:58:23;;;;;;;;;;;0.50;99.90;;;;;;5044655;28;20036;-69
2021/01/18 10:00:49;;;;;;;;;;;0.50;99.90;;;;;;5050616;28;19909;-69
2021/01/18 10:03:30;;;;;;;;;;;0.50;99.90;;;;;;5044066;28;19909;-69
2021/01/18 10:06:12;;;;;;;;;;;0.60;99.90;;;;;;5046341;28;19921;-69
2021/01/18 10:08:40;;;;;;;;;;;0.60;99.90;;;;;;5061124;28;19909;-69
2021/01/18 10:11:06;;;;;;;;;;;0.60;99.90;;;;;;5043541;28;20281;-69
2021/01/18 10:13:32;;;;;;;;;;;0.60;99.90;;;;;;5041632;28;20007;-69
2021/01/18 10:16:13;;;;;;;;;;;0.60;99.90;;;;;;5053703;28;19912;-70
2021/01/18 10:18:44;;;;;;;;;;;0.60;99.90;;;;;;5047548;28;19920;-69
2021/01/18 10:21:11;;;;;;;;;;;0.60;99.90;;;;;;5048974;28;19915;-70
2021/01/18 10:23:38;;;;;;;;;;;0.70;99.90;;;;;;5050792;28;19920;-69
2021/01/18 10:26:16;;;;;;;;;;;0.70;99.90;;;;;;5046583;28;19909;-69
2021/01/18 10:28:57;;;;;;;;;;;0.70;99.90;;;;;;5047339;28;19917;-70
2021/01/18 10:31:23;;;;;;;;;;;0.70;99.90;;;;;;5046748;28;20362;-70
2021/01/18 10:34:08;;;;;;;;;;;0.70;99.90;;;;;;5047616;28;19919;-70
2021/01/18 10:36:34;;;;;;;;;;;0.70;99.90;;;;;;5059150;28;19919;-70
2021/01/18 10:39:00;;;;;;;;;;;0.80;99.90;;;;;;5058566;28;20323;-70
2021/01/18 10:41:27;;;;;;;;;;;0.80;99.90;;;;;;5056223;28;20336;-69
2021/01/18 10:43:53;;;;;;;;;;;0.80;99.90;;;;;;5054182;28;20276;-69
2021/01/18 10:46:19;;;;;;;;;;;0.80;99.90;;;;;;5045567;28;19909;-69
2021/01/18 10:48:53;;;;;;;;;;;0.80;99.90;;;;;;5048740;28;19912;-69
2021/01/18 10:51:28;;;;;;;;;;;0.80;99.90;;;;;;5040725;28;19909;-69
2021/01/18 10:53:55;;;;;;;;;;;0.80;99.90;;;;;;5042693;28;19920;-69
2021/01/18 10:56:21;;;;;;;;;;;0.80;99.90;;;;;;5046745;28;19935;-70
2021/01/18 10:58:54;;;;;;;;;;;0.80;99.90;;;;;;5047835;28;19916;-69
2021/01/18 11:01:20;;;;;;;;;;;0.80;99.90;;;;;;5054272;28;19916;-69
2021/01/18 11:03:46;;;;;;;;;;;0.80;99.90;;;;;;5045338;28;19909;-69
2021/01/18 11:06:13;;;;;;;;;;;0.80;99.90;;;;;;5045725;28;19916;-69
2021/01/18 11:08:39;;;;;;;;;;;0.80;99.90;;;;;;5045297;28;19908;-69
2021/01/18 11:11:20;;;;;;;;;;;0.80;99.90;;;;;;5046115;28;19917;-69
2021/01/18 11:13:46;;;;;;;;;;;0.90;99.90;;;;;;5036546;28;20392;-69
2021/01/18 11:16:13;;;;;;;;;;;0.80;99.90;;;;;;5045054;28;19909;-70
2021/01/18 11:18:39;;;;;;;;;;;0.80;99.90;;;;;;5041115;28;19909;-70
2021/01/18 11:21:05;;;;;;;;;;;0.80;99.90;;;;;;5036537;28;19915;-70
2021/01/18 11:23:31;;;;;;;;;;;0.90;99.90;;;;;;5037805;28;19913;-69
2021/01/18 11:25:57;;;;;;;;;;;0.90;99.90;;;;;;5043133;28;19921;-69
2021/01/18 11:28:23;;;;;;;;;;;0.90;99.90;;;;;;5043579;28;19928;-69
2021/01/18 11:30:49;;;;;;;;;;;0.90;99.90;;;;;;5044352;28;19916;-69
2021/01/18 11:33:15;;;;;;;;;;;0.90;99.90;;;;;;5041308;28;19909;-69
2021/01/18 11:35:42;;;;;;;;;;;0.90;99.90;;;;;;5047156;28;19943;-69
2021/01/18 11:38:11;;;;;;;;;;;0.90;99.90;;;;;;5068116;28;19912;-69
2021/01/18 11:40:37;;;;;;;;;;;0.90;99.90;;;;;;5041821;28;19919;-69
2021/01/18 11:43:03;;;;;;;;;;;0.90;99.90;;;;;;5045072;28;19952;-69
2021/01/18 11:45:29;;;;;;;;;;;1.00;99.90;;;;;;5049727;28;19921;-69
2021/01/18 11:47:55;;;;;;;;;;;1.00;99.90;;;;;;5046948;28;19920;-69
2021/01/18 11:50:21;;;;;;;;;;;1.00;99.90;;;;;;5049114;28;19912;-69
2021/01/18 11:52:47;;;;;;;;;;;0.90;99.90;;;;;;5044213;28;19909;-69
2021/01/18 11:55:14;;;;;;;;;;;1.00;99.90;;;;;;5059412;28;19920;-69
2021/01/18 11:57:41;;;;;;;;;;;1.00;99.90;;;;;;5052103;28;19909;-69
2021/01/18 12:00:07;;;;;;;;;;;1.00;99.90;;;;;;5052394;28;19908;-69
2021/01/18 12:02:33;;;;;;;;;;;1.00;99.90;;;;;;5048815;28;19917;-69
2021/01/18 12:04:59;;;;;;;;;;;1.00;99.90;;;;;;5047110;28;19924;-69
2021/01/18 12:07:25;;;;;;;;;;;1.00;99.90;;;;;;5049324;28;19920;-69
2021/01/18 12:09:51;;;;;;;;;;;1.00;99.90;;;;;;5045760;28;20007;-70
2021/01/18 12:12:17;;;;;;;;;;;1.00;99.90;;;;;;5048365;28;19916;-70
2021/01/18 12:14:42;;;;;;;;;;;1.00;99.90;;;;;;5045265;28;19920;-69
2021/01/18 12:17:09;;;;;;;;;;;1.00;99.90;;;;;;5053028;28;20268;-69
2021/01/18 12:19:35;;;;;;;;;;;1.00;99.90;;;;;;5050220;28;20373;-69
2021/01/18 12:22:01;;;;;;;;;;;1.00;99.90;;;;;;5048890;28;19916;-70
2021/01/18 12:24:27;;;;;;;;;;;1.00;99.90;;;;;;5045861;28;19916;-69
2021/01/18 12:26:53;;;;;;;;;;;1.00;99.90;;;;;;5042971;28;19912;-69
2021/01/18 12:29:19;;;;;;;;;;;1.00;99.90;;;;;;5050289;28;19924;-69
2021/01/18 12:31:45;;;;;;;;;;;1.00;99.90;;;;;;5036208;28;19909;-69
2021/01/18 12:34:11;;;;;;;;;;;1.10;99.90;;;;;;5042296;28;20003;-70
2021/01/18 12:36:37;;;;;;;;;;;1.10;99.90;;;;;;5048739;28;19917;-69
2021/01/18 12:39:07;;;;;;;;;;;1.10;99.90;;;;;;5048136;28;19913;-69
2021/01/18 12:41:33;;;;;;;;;;;1.00;99.90;;;;;;5053676;28;19912;-69
2021/01/18 12:43:59;;;;;;;;;;;1.00;99.90;;;;;;5049207;28;20293;-70
2021/01/18 12:46:25;;;;;;;;;;;1.10;99.90;;;;;;5057935;28;19920;-70
2021/01/18 12:48:51;;;;;;;;;;;1.10;99.90;;;;;;5057548;28;20011;-70
2021/01/18 12:51:17;;;;;;;;;;;1.10;99.90;;;;;;5052418;28;20006;-70
2021/01/18 12:53:43;;;;;;;;;;;1.10;99.90;;;;;;5051723;28;19913;-70
2021/01/18 12:56:25;;;;;;;;;;;1.10;99.90;;;;;;5043652;28;19913;-69
2021/01/18 12:58:52;;;;;;;;;;;1.00;99.90;;;;;;5055977;28;20401;-70
2021/01/18 13:01:18;;;;;;;;;;;1.00;99.90;;;;;;5057358;28;19912;-70
2021/01/18 13:03:44;;;;;;;;;;;1.00;99.90;;;;;;5053018;28;19909;-70
2021/01/18 13:06:10;;;;;;;;;;;1.00;99.90;;;;;;5053904;28;19932;-75
2021/01/18 13:08:36;;;;;;;;;;;1.00;99.90;;;;;;5059867;28;19920;-74
2021/01/18 13:11:03;;;;;;;;;;;1.00;99.90;;;;;;5062892;28;19970;-74
2021/01/18 13:13:29;;;;;;;;;;;1.00;99.90;;;;;;5050403;28;19912;-74
2021/01/18 13:15:55;;;;;;;;;;;1.00;99.90;;;;;;5050511;28;20384;-74
2021/01/18 13:18:21;;;;;;;;;;;1.00;99.90;;;;;;5046805;28;19913;-75
2021/01/18 13:20:47;;;;;;;;;;;1.00;99.90;;;;;;5050480;28;20369;-74
2021/01/18 13:23:13;;;;;;;;;;;1.00;99.90;;;;;;5050474;28;19909;-74
2021/01/18 13:25:39;;;;;;;;;;;1.00;99.90;;;;;;5047940;28;19947;-74
2021/01/18 13:28:05;;;;;;;;;;;1.00;99.90;;;;;;5059110;28;20361;-74
2021/01/18 13:30:31;;;;;;;;;;;1.00;99.90;;;;;;5056391;28;19962;-75
2021/01/18 13:32:57;;;;;;;;;;;1.00;99.90;;;;;;5056223;28;19908;-74
2021/01/18 13:35:23;;;;;;;;;;;1.10;99.90;;;;;;5056402;28;19916;-74
2021/01/18 13:37:49;;;;;;;;;;;1.00;99.90;;;;;;5050974;28;19940;-73
2021/01/18 13:40:15;;;;;;;;;;;1.10;99.90;;;;;;5055196;28;19912;-74
2021/01/18 13:42:41;;;;;;;;;;;1.10;99.90;;;;;;5057946;28;20269;-74
2021/01/18 13:45:08;;;;;;;;;;;1.10;99.90;;;;;;5052005;28;19940;-74
2021/01/18 13:47:34;;;;;;;;;;;1.10;99.90;;;;;;5043420;28;20362;-74
2021/01/18 13:50:00;;;;;;;;;;;1.10;99.90;;;;;;5050895;28;19916;-74
2021/01/18 13:52:26;;;;;;;;;;;1.10;99.90;;;;;;5045955;28;19982;-74
2021/01/18 13:54:52;;;;;;;;;;;1.10;99.90;;;;;;5044794;28;19913;-74
2021/01/18 13:57:18;;;;;;;;;;;1.10;99.90;;;;;;5049118;28;20329;-74
2021/01/18 13:59:44;;;;;;;;;;;1.10;99.90;;;;;;5043652;28;19913;-73
2021/01/18 14:02:10;;;;;;;;;;;1.10;99.90;;;;;;5047628;28;19999;-74
2021/01/18 14:04:36;;;;;;;;;;;1.10;99.90;;;;;;5045149;28;19920;-75
2021/01/18 14:07:02;;;;;;;;;;;1.10;99.90;;;;;;5053251;28;19919;-74
2021/01/18 14:09:28;;;;;;;;;;;1.10;99.90;;;;;;5046160;28;19916;-75
2021/01/18 14:11:54;;;;;;;;;;;1.10;99.90;;;;;;5046198;28;19913;-74
2021/01/18 14:14:20;;;;;;;;;;;1.10;99.90;;;;;;5048776;28;19928;-73
2021/01/18 14:16:47;;;;;;;;;;;1.10;99.90;;;;;;5044728;28;19917;-74
2021/01/18 14:19:12;;;;;;;;;;;1.10;99.90;;;;;;5056101;28;20358;-74
2021/01/18 14:21:38;;;;;;;;;;;1.10;99.90;;;;;;5034851;28;19943;-74
2021/01/18 14:24:07;;;;;;;;;;;1.10;99.90;;;;;;5044897;28;19938;-75
2021/01/18 14:26:37;;;;;;;;;;;1.20;99.90;;;;;;5052877;28;19916;-75
2021/01/18 14:29:03;;;;;;;;;;;1.20;99.90;;;;;;5044286;28;19924;-75
2021/01/18 14:31:30;;;;;;;;;;;1.20;99.90;;;;;;5043385;28;19916;-75
2021/01/18 14:33:57;;;;;;;;;;;1.20;99.90;;;;;;5043136;28;19913;-75